Time;durP1;ratioP1;P1;durP2;ratioP2;P2;SDS_P1;SDS_P2;PMS_P1;PMS_P2;Temp;Humidity;BMP_temperature;BMP_pressure;BME280_temperature;BME280_humidity;BME280_pressure;Samples;Min_cycle;Max_cycle;Signal;HPM_P1;HPM_P2
2023/06/27 00:00:47;;;;;;;;;;;;;;;20.95;56.52;99795.78;4991318;28;4738;-78
2023/06/27 00:03:39;;;;;;;;;;;;;;;20.95;56.65;99795.78;4991134;28;4712;-76
2023/06/27 00:06:31;;;;;;;;;;;;;;;20.95;56.48;99794.97;4989370;28;4604;-77
2023/06/27 00:09:23;;;;;;;;;;;;;;;20.94;56.61;99794.19;4987037;28;4670;-75
2023/06/27 00:12:15;;;;;;;;;;;;;;;20.93;56.60;99787.06;4990496;28;4707;-77
2023/06/27 00:15:07;;;;;;;;;;;;;;;20.95;56.19;99792.25;4991385;28;4506;-75
2023/06/27 00:17:59;;;;;;;;;;;;;;;21.08;55.99;99785.91;4990364;28;5437;-77
2023/06/27 00:20:50;;;;;;;;;;;;;;;21.04;56.00;99785.72;4991828;28;4758;-77
2023/06/27 00:23:43;;;;;;;;;;;;;;;21.01;56.21;99785.53;4991458;28;4808;-77
2023/06/27 00:26:34;;;;;;;;;;;;;;;21.08;55.84;99783.19;4987401;28;4874;-76
2023/06/27 00:29:26;;;;;;;;;;;;;;;21.01;55.90;99783.59;4987127;28;4823;-74
2023/06/27 00:32:17;;;;;;;;;;;;;;;20.94;55.90;99780.50;4988758;28;4908;-77
2023/06/27 00:35:08;;;;;;;;;;;;;;;20.92;56.14;99787.38;4992702;28;4756;-76
2023/06/27 00:38:00;;;;;;;;;;;;;;;21.03;55.81;99786.03;4996429;28;4726;-76
2023/06/27 00:40:52;;;;;;;;;;;;;;;21.07;55.63;99792.50;4994358;28;4639;-75
2023/06/27 00:43:44;;;;;;;;;;;;;;;21.13;55.37;99788.53;4998530;28;4829;-77
2023/06/27 00:46:36;;;;;;;;;;;;;;;21.08;55.54;99791.38;4992464;28;5102;-77
2023/06/27 00:49:27;;;;;;;;;;;;;;;21.44;54.41;99793.31;4995064;28;5445;-76
2023/06/27 00:52:19;;;;;;;;;;;;;;;21.47;54.12;99796.28;5030513;28;4748;-76
2023/06/27 00:55:11;;;;;;;;;;;;;;;21.47;54.07;99789.97;5032877;28;4913;-76
2023/06/27 00:58:03;;;;;;;;;;;;;;;21.45;54.15;99789.50;5032193;28;5206;-75
2023/06/27 01:01:00;;;;;;;;;;;;;;;21.64;53.58;99781.88;5029656;28;4733;-76
2023/06/27 01:03:51;;;;;;;;;;;;;;;21.27;54.47;99786.56;5034510;28;4944;-77
2023/06/27 01:06:44;;;;;;;;;;;;;;;21.63;53.51;99785.75;5036620;28;4841;-76
2023/06/27 01:09:35;;;;;;;;;;;;;;;21.59;53.38;99782.03;5032624;28;4842;-75
2023/06/27 01:12:27;;;;;;;;;;;;;;;21.52;53.76;99785.19;5033830;28;5366;-74
2023/06/27 01:15:19;;;;;;;;;;;;;;;21.61;53.54;99773.47;5028618;28;5185;-74
2023/06/27 01:18:12;;;;;;;;;;;;;;;21.51;53.58;99780.03;5032058;28;4652;-75
2023/06/27 01:21:03;;;;;;;;;;;;;;;21.73;53.03;99773.72;5032522;28;4905;-78
2023/06/27 01:23:55;;;;;;;;;;;;;;;21.74;53.03;99767.13;5032317;28;4743;-75
2023/06/27 01:26:48;;;;;;;;;;;;;;;21.76;52.84;99762.94;5032482;28;4704;-76
2023/06/27 01:29:40;;;;;;;;;;;;;;;21.75;52.78;99764.06;5031175;28;4547;-76
2023/06/27 01:32:33;;;;;;;;;;;;;;;21.82;52.78;99765.53;5031512;28;5295;-76
2023/06/27 01:35:24;;;;;;;;;;;;;;;21.75;52.89;99760.50;5032794;28;4991;-75
2023/06/27 01:38:16;;;;;;;;;;;;;;;21.76;52.64;99754.72;5033006;28;4929;-76
2023/06/27 01:41:07;;;;;;;;;;;;;;;21.74;52.61;99767.13;5033602;28;4653;-78
2023/06/27 01:44:01;;;;;;;;;;;;;;;21.87;52.23;99757.19;5029330;28;4721;-76
2023/06/27 01:46:52;;;;;;;;;;;;;;;21.82;52.26;99760.06;5032341;28;4695;-78
2023/06/27 01:49:44;;;;;;;;;;;;;;;21.58;53.00;99758.47;5030630;28;5316;-76
2023/06/27 01:52:37;;;;;;;;;;;;;;;21.71;52.81;99759.53;5031395;28;5316;-76
2023/06/27 01:55:29;;;;;;;;;;;;;;;21.75;52.50;99761.31;5034403;28;4833;-77
2023/06/27 01:58:20;;;;;;;;;;;;;;;21.71;52.39;99760.34;5031312;28;5284;-76
2023/06/27 02:01:12;;;;;;;;;;;;;;;21.77;52.25;99756.34;5030329;28;4860;-76
2023/06/27 02:04:04;;;;;;;;;;;;;;;21.74;52.41;99756.97;5031856;28;5312;-76
2023/06/27 02:06:55;;;;;;;;;;;;;;;21.73;52.38;99757.28;5032495;28;4757;-77
2023/06/27 02:09:47;;;;;;;;;;;;;;;21.73;52.45;99763.56;5033743;28;4728;-75
2023/06/27 02:12:39;;;;;;;;;;;;;;;21.81;52.10;99756.53;5031113;28;4890;-76
2023/06/27 02:15:31;;;;;;;;;;;;;;;21.75;52.26;99758.59;5030867;28;5573;-75
2023/06/27 02:18:24;;;;;;;;;;;;;;;21.66;52.28;99757.72;5035087;28;4680;-77
2023/06/27 02:21:16;;;;;;;;;;;;;;;21.78;52.02;99754.41;5033722;28;5346;-74
2023/06/27 02:24:07;;;;;;;;;;;;;;;21.67;52.46;99753.03;5034789;28;4765;-76
2023/06/27 02:26:59;;;;;;;;;;;;;;;21.63;52.34;99752.88;5033684;28;4842;-78
2023/06/27 02:29:51;;;;;;;;;;;;;;;21.68;52.27;99751.94;5029665;28;4644;-79
2023/06/27 02:32:43;;;;;;;;;;;;;;;21.57;52.51;99751.38;5031326;28;5491;-77
2023/06/27 02:35:34;;;;;;;;;;;;;;;21.57;52.79;99756.84;5034424;28;4814;-76
2023/06/27 02:38:26;;;;;;;;;;;;;;;21.61;52.38;99749.63;5034515;28;4871;-78
2023/06/27 02:41:17;;;;;;;;;;;;;;;21.57;52.52;99754.13;5037997;28;5363;-75
2023/06/27 02:44:09;;;;;;;;;;;;;;;21.50;52.54;99745.50;5029560;28;5148;-76
2023/06/27 02:47:01;;;;;;;;;;;;;;;21.49;52.58;99747.44;5029930;28;4663;-78
2023/06/27 02:49:54;;;;;;;;;;;;;;;21.55;52.42;99745.41;5034061;28;4609;-79
2023/06/27 02:52:46;;;;;;;;;;;;;;;21.42;52.77;99743.53;5034303;28;4609;-79
2023/06/27 02:55:38;;;;;;;;;;;;;;;21.50;52.68;99748.25;5029716;28;4687;-77
2023/06/27 02:58:29;;;;;;;;;;;;;;;21.39;52.96;99744.97;5032583;28;4872;-76
2023/06/27 03:01:21;;;;;;;;;;;;;;;21.54;52.56;99746.53;5030697;28;4605;-77
2023/06/27 03:04:14;;;;;;;;;;;;;;;21.52;52.44;99751.50;5028708;28;4818;-78
2023/06/27 03:07:05;;;;;;;;;;;;;;;21.37;52.93;99755.44;5031243;28;5302;-77
2023/06/27 03:09:56;;;;;;;;;;;;;;;21.39;52.96;99753.19;5030160;28;4683;-77
2023/06/27 03:12:48;;;;;;;;;;;;;;;21.33;52.89;99749.75;5031052;28;4509;-76
2023/06/27 03:15:40;;;;;;;;;;;;;;;21.13;53.39;99752.16;5031411;28;4843;-77
2023/06/27 03:18:32;;;;;;;;;;;;;;;21.35;52.85;99751.34;5031478;28;4922;-77
2023/06/27 03:21:23;;;;;;;;;;;;;;;21.40;52.49;99754.81;5028440;28;4714;-77
2023/06/27 03:24:15;;;;;;;;;;;;;;;21.28;52.97;99754.53;5032956;28;4648;-75
2023/06/27 03:27:08;;;;;;;;;;;;;;;21.24;52.92;99757.06;5030028;28;5463;-79
2023/06/27 03:30:00;;;;;;;;;;;;;;;21.30;52.98;99744.88;5028814;28;5398;-77
2023/06/27 03:32:52;;;;;;;;;;;;;;;21.37;52.81;99749.16;5029263;28;5346;-75
2023/06/27 03:35:43;;;;;;;;;;;;;;;21.33;52.77;99752.47;5029150;28;4836;-78
2023/06/27 03:38:35;;;;;;;;;;;;;;;21.34;52.64;99753.28;5031428;28;4977;-77
2023/06/27 03:41:27;;;;;;;;;;;;;;;21.18;53.12;99757.47;5028448;28;4688;-78
2023/06/27 03:44:20;;;;;;;;;;;;;;;21.13;53.16;99749.41;5025961;28;4629;-77
2023/06/27 03:47:11;;;;;;;;;;;;;;;21.22;52.89;99758.50;5029710;28;5396;-75
2023/06/27 03:50:03;;;;;;;;;;;;;;;21.13;53.01;99749.41;5027356;28;4763;-76
2023/06/27 03:52:55;;;;;;;;;;;;;;;21.06;53.33;99752.56;5027823;28;4644;-75
2023/06/27 03:55:47;;;;;;;;;;;;;;;21.18;53.06;99752.84;5032823;28;4777;-79
2023/06/27 03:58:38;;;;;;;;;;;;;;;21.29;52.39;99747.91;5027622;28;4776;-77
2023/06/27 04:01:31;;;;;;;;;;;;;;;21.20;52.86;99747.03;5028929;28;4592;-77
2023/06/27 04:04:23;;;;;;;;;;;;;;;21.26;52.42;99743.88;5030165;28;4897;-76
2023/06/27 04:07:15;;;;;;;;;;;;;;;21.22;52.63;99744.81;5029742;28;4775;-77
2023/06/27 04:10:06;;;;;;;;;;;;;;;21.09;53.15;99747.28;5034355;28;5300;-79
2023/06/27 04:12:58;;;;;;;;;;;;;;;21.13;52.97;99749.41;5030708;28;5328;-77
2023/06/27 04:15:49;;;;;;;;;;;;;;;21.20;52.66;99741.56;5029777;28;4979;-77
2023/06/27 04:18:41;;;;;;;;;;;;;;;21.08;53.10;99734.69;5034570;28;4919;-76
2023/06/27 04:21:33;;;;;;;;;;;;;;;21.04;53.11;99743.88;5026643;28;4832;-76
2023/06/27 04:24:24;;;;;;;;;;;;;;;21.06;52.87;99734.22;5025473;28;4796;-76
2023/06/27 04:27:16;;;;;;;;;;;;;;;21.05;53.03;99735.31;5029226;28;4745;-77
2023/06/27 04:30:08;;;;;;;;;;;;;;;20.96;53.24;99734.44;5027697;28;4763;-78
2023/06/27 04:33:02;;;;;;;;;;;;;;;21.02;53.05;99741.41;5033446;28;4792;-78
2023/06/27 04:35:55;;;;;;;;;;;;;;;21.13;52.86;99731.06;5032140;28;5446;-75
2023/06/27 04:38:48;;;;;;;;;;;;;;;20.97;53.18;99740.72;5027823;28;4657;-75
2023/06/27 04:41:40;;;;;;;;;;;;;;;21.09;52.82;99736.34;5038130;28;5566;-75
2023/06/27 04:44:32;;;;;;;;;;;;;;;21.03;52.92;99734.00;5030959;28;5177;-76
2023/06/27 04:47:23;;;;;;;;;;;;;;;20.85;53.48;99733.06;5030167;28;5695;-79
2023/06/27 04:50:19;;;;;;;;;;;;;;;21.11;52.89;99733.28;5030242;28;4597;-76
2023/06/27 04:53:10;;;;;;;;;;;;;;;21.00;53.00;99734.63;5028995;28;5346;-76
2023/06/27 04:56:01;;;;;;;;;;;;;;;20.94;53.10;99735.88;5035107;28;4713;-76
2023/06/27 04:58:52;;;;;;;;;;;;;;;20.91;53.15;99729.06;5029180;28;4561;-78
2023/06/27 05:01:45;;;;;;;;;;;;;;;20.98;53.00;99732.22;5029141;28;5281;-77
2023/06/27 05:04:36;;;;;;;;;;;;;;;20.83;53.17;99736.09;5027449;28;5442;-75
2023/06/27 05:07:28;;;;;;;;;;;;;;;20.87;53.06;99741.78;5029641;28;4894;-78
2023/06/27 05:10:21;;;;;;;;;;;;;;;20.77;53.26;99739.28;5028290;28;4869;-75
2023/06/27 05:13:12;;;;;;;;;;;;;;;20.76;53.31;99735.69;5031465;28;4341;-76
2023/06/27 05:16:04;;;;;;;;;;;;;;;20.64;53.65;99736.22;5037163;28;4517;-77
2023/06/27 05:18:55;;;;;;;;;;;;;;;20.75;53.36;99736.84;5035195;28;4603;-76
2023/06/27 05:21:48;;;;;;;;;;;;;;;20.91;52.99;99733.75;5035048;28;4821;-75
2023/06/27 05:24:39;;;;;;;;;;;;;;;20.82;53.32;99733.66;5037955;28;4520;-77
2023/06/27 05:27:32;;;;;;;;;;;;;;;20.69;53.59;99729.84;5037879;28;4654;-76
2023/06/27 05:30:25;;;;;;;;;;;;;;;20.66;53.64;99730.47;5032327;28;4611;-76
2023/06/27 05:33:16;;;;;;;;;;;;;;;20.67;53.39;99731.28;5033582;28;4933;-78
2023/06/27 05:36:07;;;;;;;;;;;;;;;20.66;53.55;99737.88;5031713;28;4694;-77
2023/06/27 05:38:58;;;;;;;;;;;;;;;20.81;53.22;99734.78;5032046;28;4695;-77
2023/06/27 05:41:50;;;;;;;;;;;;;;;20.78;53.16;99741.69;5034479;28;5445;-76
2023/06/27 05:44:42;;;;;;;;;;;;;;;20.67;53.41;99753.97;5031459;28;5664;-77
2023/06/27 05:47:34;;;;;;;;;;;;;;;20.60;53.64;99746.19;5029810;28;5316;-74
2023/06/27 05:50:26;;;;;;;;;;;;;;;20.74;53.53;99746.16;5030981;28;4770;-76
2023/06/27 05:53:18;;;;;;;;;;;;;;;20.64;53.52;99749.09;5031155;28;5558;-78
2023/06/27 05:56:10;;;;;;;;;;;;;;;20.71;53.20;99751.44;5029337;28;4757;-79
2023/06/27 05:59:03;;;;;;;;;;;;;;;20.73;53.23;99752.72;5034783;28;5481;-76
2023/06/27 06:01:54;;;;;;;;;;;;;;;20.71;53.38;99762.38;5027229;28;5312;-76
2023/06/27 06:04:47;;;;;;;;;;;;;;;20.70;53.53;99756.09;5031898;28;4859;-77
2023/06/27 06:07:39;;;;;;;;;;;;;;;20.58;53.47;99753.88;5028908;28;4830;-75
2023/06/27 06:10:31;;;;;;;;;;;;;;;20.50;53.93;99753.75;5030300;28;4593;-77
2023/06/27 06:13:22;;;;;;;;;;;;;;;20.76;52.87;99754.84;5030310;28;4695;-77
2023/06/27 06:16:15;;;;;;;;;;;;;;;20.68;53.38;99754.78;5031496;28;4887;-77
2023/06/27 06:19:07;;;;;;;;;;;;;;;20.66;53.40;99757.03;5034191;28;4674;-78
2023/06/27 06:21:58;;;;;;;;;;;;;;;20.63;53.13;99753.78;5030609;28;4742;-75
2023/06/27 06:24:50;;;;;;;;;;;;;;;20.73;53.14;99760.13;5032778;28;5509;-76
2023/06/27 06:27:41;;;;;;;;;;;;;;;20.60;53.34;99768.06;5032258;28;5294;-76
2023/06/27 06:30:33;;;;;;;;;;;;;;;20.70;53.06;99763.50;5037477;28;5263;-76
2023/06/27 06:33:25;;;;;;;;;;;;;;;20.56;53.66;99763.50;5028920;28;5489;-76
2023/06/27 06:36:18;;;;;;;;;;;;;;;20.65;53.07;99750.75;5041927;28;4441;-76
2023/06/27 06:39:09;;;;;;;;;;;;;;;20.69;53.29;99754.47;5039653;28;3452;-78
2023/06/27 06:42:02;;;;;;;;;;;;;;;20.65;53.14;99758.94;5043594;28;2390;-76
2023/06/27 06:44:53;;;;;;;;;;;;;;;20.59;53.21;99762.91;5042940;28;2495;-76
2023/06/27 06:47:45;;;;;;;;;;;;;;;20.62;53.16;99760.38;5038058;28;2619;-76
2023/06/27 06:50:37;;;;;;;;;;;;;;;20.58;53.32;99767.53;5039173;28;4437;-77
2023/06/27 06:53:30;;;;;;;;;;;;;;;20.47;53.65;99766.13;5040877;28;2590;-76
2023/06/27 06:56:22;;;;;;;;;;;;;;;20.61;53.00;99768.88;5029353;28;2316;-75
2023/06/27 06:58:48;;;;;;;;;;;;;;;20.78;52.75;99770.97;5037116;28;3715;-75
2023/06/27 07:01:15;;;;;;;;;;;;;;;20.64;53.31;99766.31;5033715;28;3680;-76
2023/06/27 07:03:43;;;;;;;;;;;;;;;20.68;53.09;99768.44;5035175;28;3917;-75
2023/06/27 07:06:35;;;;;;;;;;;;;;;20.66;53.02;99770.69;5039261;28;4218;-77
2023/06/27 07:09:28;;;;;;;;;;;;;;;20.72;52.85;99778.47;5037234;28;4161;-76
2023/06/27 07:12:19;;;;;;;;;;;;;;;20.55;53.25;99798.25;5040552;28;4230;-75
2023/06/27 07:15:10;;;;;;;;;;;;;;;20.65;52.82;99797.25;5039325;28;4236;-78
2023/06/27 07:18:02;;;;;;;;;;;;;;;20.49;53.19;99788.50;5032310;28;4272;-77
2023/06/27 07:20:54;;;;;;;;;;;;;;;20.58;53.07;99789.44;5032729;28;4091;-78
2023/06/27 07:23:45;;;;;;;;;;;;;;;20.58;53.35;99780.41;5030829;28;4178;-75
2023/06/27 07:26:38;;;;;;;;;;;;;;;20.59;53.04;99790.25;5029552;28;4128;-75
2023/06/27 07:29:30;;;;;;;;;;;;;;;20.64;53.01;99784.66;5035746;28;3975;-77
2023/06/27 07:32:22;;;;;;;;;;;;;;;20.60;53.00;99781.75;5031129;28;4162;-78
2023/06/27 07:35:14;;;;;;;;;;;;;;;20.47;53.28;99788.00;5034834;28;4174;-77
2023/06/27 07:38:06;;;;;;;;;;;;;;;20.69;52.74;99789.25;5032493;28;4266;-77
2023/06/27 07:40:58;;;;;;;;;;;;;;;20.58;52.82;99788.63;5030006;28;4033;-78
2023/06/27 07:43:49;;;;;;;;;;;;;;;20.53;53.10;99791.47;5031546;28;4230;-76
2023/06/27 07:46:40;;;;;;;;;;;;;;;20.49;53.42;99793.97;5032423;28;3894;-78
2023/06/27 07:49:32;;;;;;;;;;;;;;;20.34;53.47;99784.13;5034974;28;3754;-79
2023/06/27 07:51:58;;;;;;;;;;;;;;;20.71;52.56;99787.81;5037125;28;3974;-78
2023/06/27 07:54:27;;;;;;;;;;;;;;;20.58;52.83;99789.44;5037353;28;3871;-77
2023/06/27 07:57:18;;;;;;;;;;;;;;;20.49;53.10;99787.69;5034453;28;3948;-77
2023/06/27 08:00:11;;;;;;;;;;;;;;;20.53;53.50;99792.28;5027722;28;3961;-78
2023/06/27 08:03:03;;;;;;;;;;;;;;;20.54;53.33;99807.56;5030824;28;4007;-77
2023/06/27 08:05:56;;;;;;;;;;;;;;;20.50;52.97;99805.72;5038035;28;3978;-76
2023/06/27 08:08:42;;;;;;;;;;;;;;;20.50;52.95;99806.53;5037080;28;3879;-76
2023/06/27 08:11:29;;;;;;;;;;;;;;;20.64;52.63;99818.28;5034428;28;3907;-76
2023/06/27 08:13:56;;;;;;;;;;;;;;;20.76;52.46;99820.53;5034511;28;3749;-74
2023/06/27 08:16:23;;;;;;;;;;;;;;;20.66;52.40;99822.69;5040136;28;4061;-76
2023/06/27 08:18:49;;;;;;;;;;;;;;;20.70;52.38;99826.41;5041006;28;3898;-75
2023/06/27 08:21:16;;;;;;;;;;;;;;;20.58;52.78;99838.66;5040319;28;3927;-74
2023/06/27 08:23:43;;;;;;;;;;;;;;;20.67;52.79;99837.97;5040367;28;3942;-76
2023/06/27 08:26:09;;;;;;;;;;;;;;;20.62;52.61;99826.03;5039276;28;4169;-77
2023/06/27 08:28:36;;;;;;;;;;;;;;;20.53;52.87;99821.53;5036584;28;3813;-77
2023/06/27 08:31:03;;;;;;;;;;;;;;;20.58;52.88;99830.47;5034998;28;3868;-76
2023/06/27 08:33:29;;;;;;;;;;;;;;;20.60;52.51;99841.13;5040346;28;4157;-75
2023/06/27 08:35:56;;;;;;;;;;;;;;;20.66;52.49;99836.34;5031979;28;3873;-76
2023/06/27 08:38:23;;;;;;;;;;;;;;;20.47;52.81;99828.19;5033442;28;4086;-78
2023/06/27 08:40:49;;;;;;;;;;;;;;;20.58;52.86;99815.97;5033024;28;3929;-77
2023/06/27 08:43:16;;;;;;;;;;;;;;;20.53;52.63;99816.91;5039351;28;4043;-76
2023/06/27 08:45:42;;;;;;;;;;;;;;;20.52;52.98;99820.75;5038814;28;4052;-78
2023/06/27 08:48:09;;;;;;;;;;;;;;;20.50;52.91;99812.00;5051162;28;4004;-77
2023/06/27 08:50:35;;;;;;;;;;;;;;;20.68;52.69;99806.75;5037601;28;4117;-74
2023/06/27 08:53:02;;;;;;;;;;;;;;;20.54;53.00;99812.25;5040935;28;3912;-75
2023/06/27 08:55:28;;;;;;;;;;;;;;;20.64;52.42;99823.78;5039555;28;3994;-76
2023/06/27 08:57:55;;;;;;;;;;;;;;;20.62;52.46;99825.22;5042696;28;4167;-79
2023/06/27 09:00:22;;;;;;;;;;;;;;;20.51;53.01;99826.50;5053535;28;3956;-74
2023/06/27 09:02:48;;;;;;;;;;;;;;;20.47;53.31;99834.50;5045699;28;3979;-74
2023/06/27 09:05:15;;;;;;;;;;;;;;;20.55;52.93;99830.25;5043103;28;3905;-76
2023/06/27 09:07:42;;;;;;;;;;;;;;;20.63;52.50;99827.63;5058885;28;3917;-77
2023/06/27 09:10:08;;;;;;;;;;;;;;;20.49;52.68;99817.78;5043051;28;3994;-76
2023/06/27 09:12:35;;;;;;;;;;;;;;;20.56;52.65;99820.94;5044665;28;4092;-77
2023/06/27 09:15:01;;;;;;;;;;;;;;;20.73;52.28;99806.66;5043019;28;3921;-76
2023/06/27 09:17:28;;;;;;;;;;;;;;;20.62;52.33;99792.38;5044724;28;3984;-75
2023/06/27 09:19:54;;;;;;;;;;;;;;;20.53;52.84;99802.41;5044200;28;4079;-78
2023/06/27 09:22:23;;;;;;;;;;;;;;;20.50;53.08;99800.25;5044658;28;3993;-77
2023/06/27 09:24:49;;;;;;;;;;;;;;;20.58;52.78;99794.91;5057487;28;4217;-79
2023/06/27 09:27:16;;;;;;;;;;;;;;;20.53;53.05;99794.19;5043780;28;4012;-76
2023/06/27 09:29:43;;;;;;;;;;;;;;;20.62;52.44;99806.06;5044579;28;4199;-76
2023/06/27 09:32:09;;;;;;;;;;;;;;;20.73;51.98;99812.13;5043109;28;4124;-77
2023/06/27 09:34:36;;;;;;;;;;;;;;;20.69;52.25;99811.94;5044980;28;4049;-76
2023/06/27 09:37:02;;;;;;;;;;;;;;;20.81;52.16;99808.69;5042134;28;4046;-76
2023/06/27 09:39:29;;;;;;;;;;;;;;;20.63;52.30;99813.94;5043710;28;4154;-77
2023/06/27 09:41:55;;;;;;;;;;;;;;;20.72;52.40;99826.94;5042152;28;4357;-76
2023/06/27 09:44:24;;;;;;;;;;;;;;;20.72;52.04;99837.88;5041942;28;3883;-78
2023/06/27 09:46:51;;;;;;;;;;;;;;;20.63;52.24;99845.97;5043490;28;4042;-76
2023/06/27 09:49:18;;;;;;;;;;;;;;;20.89;51.81;99843.53;5041161;28;4034;-76
2023/06/27 09:51:44;;;;;;;;;;;;;;;20.70;52.11;99849.09;5052302;28;3273;-77
2023/06/27 09:54:11;;;;;;;;;;;;;;;20.61;52.23;99856.41;5053364;28;4133;-76
2023/06/27 09:56:37;;;;;;;;;;;;;;;20.59;52.39;99851.25;5052640;28;3940;-77
2023/06/27 09:59:04;;;;;;;;;;;;;;;20.42;52.85;99848.25;5038680;28;3827;-79
2023/06/27 10:01:31;;;;;;;;;;;;;;;20.17;53.52;99857.72;5050912;28;4041;-77
2023/06/27 10:03:57;;;;;;;;;;;;;;;20.39;53.34;99855.16;5036493;28;3828;-80
2023/06/27 10:06:24;;;;;;;;;;;;;;;20.10;53.92;99857.31;5055521;28;4094;-78
2023/06/27 10:08:50;;;;;;;;;;;;;;;20.03;54.03;99859.59;5035620;28;3915;-75
2023/06/27 10:11:17;;;;;;;;;;;;;;;19.93;54.36;99852.41;5036789;28;4040;-76
2023/06/27 10:13:44;;;;;;;;;;;;;;;19.94;54.47;99854.00;5038706;28;3927;-74
2023/06/27 10:16:10;;;;;;;;;;;;;;;19.88;54.58;99850.59;5037249;28;3934;-75
2023/06/27 10:18:37;;;;;;;;;;;;;;;19.86;54.76;99846.53;5039809;28;4062;-78
2023/06/27 10:21:03;;;;;;;;;;;;;;;19.90;54.80;99844.81;5036282;28;4174;-75
2023/06/27 10:23:30;;;;;;;;;;;;;;;19.89;54.82;99844.00;5032265;28;3408;-79
2023/06/27 10:25:57;;;;;;;;;;;;;;;19.95;54.56;99845.53;5032474;28;3887;-78
2023/06/27 10:28:23;;;;;;;;;;;;;;;19.97;54.64;99847.94;5035766;28;4169;-78
2023/06/27 10:30:50;;;;;;;;;;;;;;;19.97;54.60;99856.16;5036660;28;3848;-78
2023/06/27 10:33:16;;;;;;;;;;;;;;;19.96;54.58;99854.53;5038666;28;4071;-77
2023/06/27 10:35:43;;;;;;;;;;;;;;;19.96;54.49;99854.53;5070694;28;4520;-77
2023/06/27 10:38:09;;;;;;;;;;;;;;;19.96;54.66;99860.00;5036168;28;3976;-79
2023/06/27 10:40:36;;;;;;;;;;;;;;;19.98;54.62;99874.19;5035379;28;3886;-77
2023/06/27 10:43:03;;;;;;;;;;;;;;;19.96;54.55;99877.19;5035821;28;3935;-77
2023/06/27 10:45:30;;;;;;;;;;;;;;;19.97;54.50;99872.53;5035877;28;3984;-77
2023/06/27 10:47:56;;;;;;;;;;;;;;;19.96;54.73;99887.31;5035890;28;3958;-77
2023/06/27 10:50:24;;;;;;;;;;;;;;;19.92;54.45;99884.38;5035402;28;4051;-77
2023/06/27 10:52:50;;;;;;;;;;;;;;;19.94;54.60;99878.59;5032154;28;3690;-75
2023/06/27 10:55:18;;;;;;;;;;;;;;;19.92;54.91;99876.19;5027296;28;3818;-76
2023/06/27 10:57:44;;;;;;;;;;;;;;;19.93;54.87;99877.00;5030660;28;3438;-75
2023/06/27 11:00:11;;;;;;;;;;;;;;;19.95;54.91;99872.06;5044333;28;4044;-76
2023/06/27 11:02:38;;;;;;;;;;;;;;;19.93;54.44;99882.47;5028046;28;3108;-76
2023/06/27 11:05:04;;;;;;;;;;;;;;;19.93;54.83;99883.25;5030471;28;3823;-77
2023/06/27 11:07:31;;;;;;;;;;;;;;;19.94;54.76;99884.06;5032495;28;3635;-76
2023/06/27 11:09:57;;;;;;;;;;;;;;;19.99;54.78;99886.72;5031133;28;3755;-78
2023/06/27 11:12:24;;;;;;;;;;;;;;;19.98;54.76;99887.84;5060296;28;4070;-77
2023/06/27 11:14:53;;;;;;;;;;;;;;;19.60;54.65;99829.69;5048830;28;3864;-76
2023/06/27 11:17:20;;;;;;;;;;;;;;;20.06;54.51;99898.09;5028195;28;3812;-76
2023/06/27 11:19:46;;;;;;;;;;;;;;;20.08;54.54;99901.34;5031640;28;3963;-76
2023/06/27 11:22:13;;;;;;;;;;;;;;;20.17;54.18;99898.72;5032054;28;3874;-76
2023/06/27 11:24:39;;;;;;;;;;;;;;;20.16;54.32;99914.31;5028997;28;3524;-76
2023/06/27 11:27:07;;;;;;;;;;;;;;;20.17;54.26;99907.75;5046085;28;3842;-75
2023/06/27 11:29:33;;;;;;;;;;;;;;;20.17;54.30;99915.13;5035575;28;4146;-77
2023/06/27 11:32:00;;;;;;;;;;;;;;;20.17;54.17;99917.88;5031247;28;3920;-76
2023/06/27 11:34:27;;;;;;;;;;;;;;;20.17;54.39;99912.41;5033045;28;4115;-76
2023/06/27 11:36:53;;;;;;;;;;;;;;;20.17;54.39;99913.19;5034899;28;4070;-77
2023/06/27 11:39:20;;;;;;;;;;;;;;;20.15;54.39;99917.38;5037999;28;3968;-75
2023/06/27 11:41:47;;;;;;;;;;;;;;;20.15;54.26;99912.72;5034681;28;3973;-76
2023/06/27 11:44:13;;;;;;;;;;;;;;;20.13;54.56;99911.38;5051069;28;4067;-74
2023/06/27 11:46:40;;;;;;;;;;;;;;;20.12;54.69;99909.78;5048651;28;3971;-74
2023/06/27 11:49:07;;;;;;;;;;;;;;;20.10;54.79;99904.59;5034373;28;3879;-76
2023/06/27 11:51:34;;;;;;;;;;;;;;;20.13;54.72;99911.38;5035695;28;4103;-74
2023/06/27 11:54:02;;;;;;;;;;;;;;;20.16;54.74;99914.31;5036429;28;3972;-77
2023/06/27 11:56:29;;;;;;;;;;;;;;;20.15;54.57;99915.44;5048912;28;3757;-77
2023/06/27 11:58:57;;;;;;;;;;;;;;;20.09;54.84;99916.66;5047947;28;3834;-76
2023/06/27 12:01:23;;;;;;;;;;;;;;;20.06;55.23;99913.66;5032330;28;3978;-76
2023/06/27 12:03:50;;;;;;;;;;;;;;;20.09;54.98;99916.66;5051640;28;3911;-78
2023/06/27 12:06:17;;;;;;;;;;;;;;;20.07;55.26;99909.84;5032956;28;3878;-76
2023/06/27 12:08:43;;;;;;;;;;;;;;;20.09;54.99;99911.19;5036137;28;3983;-78
2023/06/27 12:11:10;;;;;;;;;;;;;;;20.10;55.13;99907.31;5048081;28;3986;-76
2023/06/27 12:13:37;;;;;;;;;;;;;;;20.09;55.35;99913.91;5036320;28;3995;-74
2023/06/27 12:16:03;;;;;;;;;;;;;;;20.10;55.21;99917.44;5047884;28;3994;-79
2023/06/27 12:18:30;;;;;;;;;;;;;;;20.11;55.07;99913.59;5038852;28;4059;-77
2023/06/27 12:20:56;;;;;;;;;;;;;;;20.11;55.24;99913.59;5033332;28;3934;-77
2023/06/27 12:23:23;;;;;;;;;;;;;;;19.69;55.23;99845.13;5034611;28;4201;-78
2023/06/27 12:25:49;;;;;;;;;;;;;;;20.12;55.41;99916.03;5049503;28;3731;-75
2023/06/27 12:28:16;;;;;;;;;;;;;;;20.14;55.32;99910.25;5033594;28;3803;-79
2023/06/27 12:30:43;;;;;;;;;;;;;;;20.13;55.44;99909.47;5049402;28;3970;-76
2023/06/27 12:33:09;;;;;;;;;;;;;;;20.12;55.22;99912.50;5052627;28;4050;-78
2023/06/27 12:35:36;;;;;;;;;;;;;;;20.12;55.37;99907.84;5055377;28;3988;-76
2023/06/27 12:38:03;;;;;;;;;;;;;;;20.13;55.35;99914.94;5053190;28;3860;-77
2023/06/27 12:40:29;;;;;;;;;;;;;;;20.16;55.17;99910.78;5055398;28;3549;-77
2023/06/27 12:42:57;;;;;;;;;;;;;;;20.17;55.46;99905.00;5057865;28;4101;-77
2023/06/27 12:45:24;;;;;;;;;;;;;;;20.17;55.13;99910.47;5038076;28;3617;-76
2023/06/27 12:47:50;;;;;;;;;;;;;;;20.19;55.38;99902.78;5035240;28;4040;-77
2023/06/27 12:50:17;;;;;;;;;;;;;;;20.19;55.22;99907.44;5036918;28;3862;-78
2023/06/27 12:52:47;;;;;;;;;;;;;;;20.20;55.11;99909.88;5049855;28;3804;-76
2023/06/27 12:55:13;;;;;;;;;;;;;;;20.22;55.44;99914.25;5047995;28;3827;-79
2023/06/27 12:57:40;;;;;;;;;;;;;;;20.23;55.38;99911.19;5038691;28;4208;-77
2023/06/27 13:00:08;;;;;;;;;;;;;;;20.25;55.30;99910.91;5036549;28;4021;-79
2023/06/27 13:02:35;;;;;;;;;;;;;;;20.26;55.11;99909.78;5051657;28;3899;-77
2023/06/27 13:05:01;;;;;;;;;;;;;;;20.27;55.42;99914.97;5035922;28;3651;-78
2023/06/27 13:07:28;;;;;;;;;;;;;;;20.28;55.21;99915.78;5029814;28;3545;-77
2023/06/27 13:09:56;;;;;;;;;;;;;;;20.29;55.46;99909.19;5052875;28;3998;-77
2023/06/27 13:12:22;;;;;;;;;;;;;;;20.30;55.47;99908.09;5052619;28;4117;-77
2023/06/27 13:14:49;;;;;;;;;;;;;;;20.32;55.52;99908.59;5037420;28;3954;-76
2023/06/27 13:17:15;;;;;;;;;;;;;;;20.32;55.07;99908.59;5037332;28;3969;-75
2023/06/27 13:19:42;;;;;;;;;;;;;;;20.32;55.44;99914.06;5052248;28;3695;-75
2023/06/27 13:22:08;;;;;;;;;;;;;;;20.32;55.26;99911.31;5023458;28;3834;-76
2023/06/27 13:24:35;;;;;;;;;;;;;;;20.33;55.06;99905.56;5041355;28;3888;-75
2023/06/27 13:27:02;;;;;;;;;;;;;;;20.35;55.49;99910.72;5035485;28;4427;-76
2023/06/27 13:29:29;;;;;;;;;;;;;;;20.36;55.10;99910.44;5036536;28;3473;-75
2023/06/27 13:31:56;;;;;;;;;;;;;;;20.37;55.16;99908.50;5035996;28;3985;-76
2023/06/27 13:34:23;;;;;;;;;;;;;;;20.36;55.11;99910.44;5035575;28;3917;-78
2023/06/27 13:36:49;;;;;;;;;;;;;;;20.39;55.36;99917.22;5051106;28;3990;-76
2023/06/27 13:39:16;;;;;;;;;;;;;;;20.40;55.53;99907.91;5053486;28;3992;-78
2023/06/27 13:41:43;;;;;;;;;;;;;;;20.41;55.19;99920.47;5052731;28;3979;-76
2023/06/27 13:44:11;;;;;;;;;;;;;;;20.41;55.52;99910.34;5052035;28;4116;-78
2023/06/27 13:46:37;;;;;;;;;;;;;;;20.42;55.28;99909.22;5039060;28;4005;-75
2023/06/27 13:49:08;;;;;;;;;;;;;;;20.43;55.45;99908.13;5031250;28;3962;-75
2023/06/27 13:51:34;;;;;;;;;;;;;;;20.45;55.23;99902.34;5056564;28;3144;-77
2023/06/27 13:54:01;;;;;;;;;;;;;;;20.46;55.39;99903.16;5040474;28;4074;-77
2023/06/27 13:56:27;;;;;;;;;;;;;;;20.46;55.42;99914.09;5027669;28;3750;-78
2023/06/27 13:58:54;;;;;;;;;;;;;;;20.48;55.29;99914.63;5025570;28;3977;-77
2023/06/27 14:01:21;;;;;;;;;;;;;;;20.49;55.69;99921.69;5031817;28;3967;-77
2023/06/27 14:03:48;;;;;;;;;;;;;;;20.50;55.78;99920.56;5061864;28;3990;-76